sensor_id;sensor_type;location;lat;lon;timestamp;P1;durP1;ratioP1;P2;durP2;ratioP2
41719;SDS011;27405;53.316;-6.294;2023-01-28T00:02:22;23.70;;;5.97;;
41719;SDS011;27405;53.316;-6.294;2023-01-28T00:04:48;21.38;;;5.82;;
41719;SDS011;27405;53.316;-6.294;2023-01-28T00:07:14;15.70;;;5.18;;
41719;SDS011;27405;53.316;-6.294;2023-01-28T00:09:40;23.02;;;5.18;;
41719;SDS011;27405;53.316;-6.294;2023-01-28T00:12:06;13.13;;;4.50;;
41719;SDS011;27405;53.316;-6.294;2023-01-28T00:14:32;17.88;;;4.18;;
41719;SDS011;27405;53.316;-6.294;2023-01-28T00:16:58;22.75;;;4.60;;
41719;SDS011;27405;53.316;-6.294;2023-01-28T00:19:24;17.50;;;4.53;;
41719;SDS011;27405;53.316;-6.294;2023-01-28T00:21:50;20.05;;;4.25;;
41719;SDS011;27405;53.316;-6.294;2023-01-28T00:24:17;20.23;;;4.50;;
41719;SDS011;27405;53.316;-6.294;2023-01-28T00:26:42;21.52;;;4.63;;
41719;SDS011;27405;53.316;-6.294;2023-01-28T00:29:11;21.00;;;4.75;;
41719;SDS011;27405;53.316;-6.294;2023-01-28T00:31:37;16.45;;;4.78;;
41719;SDS011;27405;53.316;-6.294;2023-01-28T00:34:05;20.98;;;4.22;;
41719;SDS011;27405;53.316;-6.294;2023-01-28T00:36:31;18.70;;;4.85;;
41719;SDS011;27405;53.316;-6.294;2023-01-28T00:38:58;17.00;;;4.07;;
41719;SDS011;27405;53.316;-6.294;2023-01-28T00:41:28;18.00;;;4.72;;
41719;SDS011;27405;53.316;-6.294;2023-01-28T00:43:54;15.73;;;4.00;;
41719;SDS011;27405;53.316;-6.294;2023-01-28T00:46:20;19.08;;;4.20;;
41719;SDS011;27405;53.316;-6.294;2023-01-28T00:48:47;15.30;;;3.95;;
41719;SDS011;27405;53.316;-6.294;2023-01-28T00:51:15;18.00;;;4.60;;
41719;SDS011;27405;53.316;-6.294;2023-01-28T00:53:43;19.53;;;4.73;;
41719;SDS011;27405;53.316;-6.294;2023-01-28T00:56:11;15.27;;;4.00;;
41719;SDS011;27405;53.316;-6.294;2023-01-28T00:58:39;14.63;;;3.63;;
41719;SDS011;27405;53.316;-6.294;2023-01-28T01:01:12;14.32;;;3.75;;
41719;SDS011;27405;53.316;-6.294;2023-01-28T01:03:40;18.38;;;3.70;;
41719;SDS011;27405;53.316;-6.294;2023-01-28T01:06:06;16.05;;;3.30;;
41719;SDS011;27405;53.316;-6.294;2023-01-28T01:08:33;14.63;;;3.17;;
41719;SDS011;27405;53.316;-6.294;2023-01-28T01:11:01;14.57;;;3.80;;
41719;SDS011;27405;53.316;-6.294;2023-01-28T01:13:29;17.05;;;3.47;;
41719;SDS011;27405;53.316;-6.294;2023-01-28T01:16:03;18.30;;;4.10;;
41719;SDS011;27405;53.316;-6.294;2023-01-28T01:18:32;19.85;;;3.15;;
41719;SDS011;27405;53.316;-6.294;2023-01-28T01:20:59;16.88;;;3.67;;
41719;SDS011;27405;53.316;-6.294;2023-01-28T01:23:26;14.90;;;3.05;;
41719;SDS011;27405;53.316;-6.294;2023-01-28T01:25:53;16.63;;;3.65;;
41719;SDS011;27405;53.316;-6.294;2023-01-28T01:28:19;17.98;;;3.35;;
41719;SDS011;27405;53.316;-6.294;2023-01-28T01:30:45;15.20;;;2.80;;
41719;SDS011;27405;53.316;-6.294;2023-01-28T01:33:11;15.23;;;3.80;;
41719;SDS011;27405;53.316;-6.294;2023-01-28T01:35:38;12.05;;;2.80;;
41719;SDS011;27405;53.316;-6.294;2023-01-28T01:38:04;18.98;;;2.97;;
41719;SDS011;27405;53.316;-6.294;2023-01-28T01:40:30;15.52;;;3.15;;
41719;SDS011;27405;53.316;-6.294;2023-01-28T01:42:56;15.40;;;2.53;;
41719;SDS011;27405;53.316;-6.294;2023-01-28T01:45:22;19.80;;;3.20;;
41719;SDS011;27405;53.316;-6.294;2023-01-28T01:47:51;15.65;;;2.85;;
41719;SDS011;27405;53.316;-6.294;2023-01-28T01:50:28;16.45;;;2.90;;
41719;SDS011;27405;53.316;-6.294;2023-01-28T01:53:02;12.93;;;2.95;;
41719;SDS011;27405;53.316;-6.294;2023-01-28T01:55:41;11.10;;;2.55;;
41719;SDS011;27405;53.316;-6.294;2023-01-28T01:58:12;13.52;;;2.63;;
41719;SDS011;27405;53.316;-6.294;2023-01-28T02:00:40;17.33;;;2.78;;
41719;SDS011;27405;53.316;-6.294;2023-01-28T02:03:07;13.38;;;2.67;;
41719;SDS011;27405;53.316;-6.294;2023-01-28T02:05:34;17.27;;;3.08;;
41719;SDS011;27405;53.316;-6.294;2023-01-28T02:08:00;14.75;;;2.85;;
41719;SDS011;27405;53.316;-6.294;2023-01-28T02:10:45;20.70;;;2.65;;
41719;SDS011;27405;53.316;-6.294;2023-01-28T02:13:14;16.08;;;2.92;;
41719;SDS011;27405;53.316;-6.294;2023-01-28T02:15:42;18.38;;;3.30;;
41719;SDS011;27405;53.316;-6.294;2023-01-28T02:18:09;19.77;;;3.30;;
41719;SDS011;27405;53.316;-6.294;2023-01-28T02:23:36;19.80;;;3.17;;
41719;SDS011;27405;53.316;-6.294;2023-01-28T02:31:41;15.50;;;3.13;;
41719;SDS011;27405;53.316;-6.294;2023-01-28T02:34:27;17.08;;;3.75;;
41719;SDS011;27405;53.316;-6.294;2023-01-28T02:36:54;17.50;;;3.25;;
41719;SDS011;27405;53.316;-6.294;2023-01-28T02:39:26;15.68;;;3.13;;
41719;SDS011;27405;53.316;-6.294;2023-01-28T02:41:57;18.05;;;2.97;;
41719;SDS011;27405;53.316;-6.294;2023-01-28T02:44:31;12.45;;;2.80;;
41719;SDS011;27405;53.316;-6.294;2023-01-28T02:46:57;16.30;;;3.25;;
41719;SDS011;27405;53.316;-6.294;2023-01-28T02:49:49;15.75;;;3.88;;
41719;SDS011;27405;53.316;-6.294;2023-01-28T02:58:25;17.77;;;3.30;;
41719;SDS011;27405;53.316;-6.294;2023-01-28T03:04:02;11.93;;;2.95;;
41719;SDS011;27405;53.316;-6.294;2023-01-28T03:06:38;15.20;;;2.97;;
41719;SDS011;27405;53.316;-6.294;2023-01-28T03:09:09;9.90;;;2.50;;
41719;SDS011;27405;53.316;-6.294;2023-01-28T03:11:55;11.10;;;2.85;;
41719;SDS011;27405;53.316;-6.294;2023-01-28T03:15:02;12.32;;;2.30;;
41719;SDS011;27405;53.316;-6.294;2023-01-28T03:18:00;6.78;;;1.77;;
41719;SDS011;27405;53.316;-6.294;2023-01-28T03:20:56;8.55;;;1.98;;
41719;SDS011;27405;53.316;-6.294;2023-01-28T03:23:58;3.05;;;1.50;;
41719;SDS011;27405;53.316;-6.294;2023-01-28T03:29:47;4.35;;;1.20;;
41719;SDS011;27405;53.316;-6.294;2023-01-28T03:32:35;4.18;;;1.35;;
41719;SDS011;27405;53.316;-6.294;2023-01-28T03:35:21;5.97;;;1.58;;
41719;SDS011;27405;53.316;-6.294;2023-01-28T03:38:07;4.28;;;1.45;;
41719;SDS011;27405;53.316;-6.294;2023-01-28T03:40:50;3.65;;;1.48;;
41719;SDS011;27405;53.316;-6.294;2023-01-28T03:43:29;5.38;;;1.67;;
41719;SDS011;27405;53.316;-6.294;2023-01-28T03:45:56;3.13;;;1.02;;
41719;SDS011;27405;53.316;-6.294;2023-01-28T03:48:23;2.15;;;1.10;;
41719;SDS011;27405;53.316;-6.294;2023-01-28T03:50:50;2.65;;;1.15;;
41719;SDS011;27405;53.316;-6.294;2023-01-28T03:53:18;3.80;;;1.33;;
41719;SDS011;27405;53.316;-6.294;2023-01-28T03:55:45;6.18;;;1.30;;
41719;SDS011;27405;53.316;-6.294;2023-01-28T03:58:12;3.75;;;1.20;;
41719;SDS011;27405;53.316;-6.294;2023-01-28T04:00:39;3.22;;;1.38;;
41719;SDS011;27405;53.316;-6.294;2023-01-28T04:03:08;1.60;;;0.95;;
41719;SDS011;27405;53.316;-6.294;2023-01-28T04:06:00;3.42;;;1.10;;
41719;SDS011;27405;53.316;-6.294;2023-01-28T04:08:28;2.30;;;1.05;;
41719;SDS011;27405;53.316;-6.294;2023-01-28T04:10:53;2.67;;;1.20;;
41719;SDS011;27405;53.316;-6.294;2023-01-28T04:13:20;5.25;;;1.33;;
41719;SDS011;27405;53.316;-6.294;2023-01-28T04:15:46;3.75;;;1.08;;
41719;SDS011;27405;53.316;-6.294;2023-01-28T04:18:13;2.75;;;1.02;;
41719;SDS011;27405;53.316;-6.294;2023-01-28T04:20:40;2.63;;;1.35;;
41719;SDS011;27405;53.316;-6.294;2023-01-28T04:23:06;4.95;;;1.42;;
41719;SDS011;27405;53.316;-6.294;2023-01-28T04:25:34;4.93;;;1.60;;
41719;SDS011;27405;53.316;-6.294;2023-01-28T04:27:59;2.08;;;1.30;;
41719;SDS011;27405;53.316;-6.294;2023-01-28T04:30:26;3.17;;;1.27;;
41719;SDS011;27405;53.316;-6.294;2023-01-28T04:32:52;3.20;;;1.52;;
41719;SDS011;27405;53.316;-6.294;2023-01-28T04:35:18;2.40;;;0.95;;
41719;SDS011;27405;53.316;-6.294;2023-01-28T04:37:44;4.15;;;1.27;;
41719;SDS011;27405;53.316;-6.294;2023-01-28T04:40:11;4.57;;;1.42;;
41719;SDS011;27405;53.316;-6.294;2023-01-28T04:42:37;2.70;;;1.15;;
41719;SDS011;27405;53.316;-6.294;2023-01-28T04:45:04;4.03;;;1.00;;
41719;SDS011;27405;53.316;-6.294;2023-01-28T04:47:30;5.68;;;1.15;;
41719;SDS011;27405;53.316;-6.294;2023-01-28T04:49:56;4.90;;;1.38;;
41719;SDS011;27405;53.316;-6.294;2023-01-28T04:52:22;6.50;;;1.38;;
41719;SDS011;27405;53.316;-6.294;2023-01-28T04:54:47;4.07;;;1.20;;
41719;SDS011;27405;53.316;-6.294;2023-01-28T04:57:15;3.53;;;1.40;;
41719;SDS011;27405;53.316;-6.294;2023-01-28T04:59:41;3.25;;;1.30;;
41719;SDS011;27405;53.316;-6.294;2023-01-28T05:02:07;3.85;;;1.40;;
41719;SDS011;27405;53.316;-6.294;2023-01-28T05:04:33;5.90;;;1.60;;
41719;SDS011;27405;53.316;-6.294;2023-01-28T05:06:59;6.90;;;1.70;;
41719;SDS011;27405;53.316;-6.294;2023-01-28T05:09:25;4.80;;;1.40;;
41719;SDS011;27405;53.316;-6.294;2023-01-28T05:11:50;3.42;;;1.65;;
41719;SDS011;27405;53.316;-6.294;2023-01-28T05:14:16;3.67;;;1.70;;
41719;SDS011;27405;53.316;-6.294;2023-01-28T05:16:42;4.40;;;1.65;;
41719;SDS011;27405;53.316;-6.294;2023-01-28T05:19:07;2.70;;;1.50;;
41719;SDS011;27405;53.316;-6.294;2023-01-28T05:21:33;4.68;;;1.40;;
41719;SDS011;27405;53.316;-6.294;2023-01-28T05:24:00;5.47;;;1.70;;
41719;SDS011;27405;53.316;-6.294;2023-01-28T05:26:26;5.30;;;1.63;;
41719;SDS011;27405;53.316;-6.294;2023-01-28T05:28:52;6.13;;;1.98;;
41719;SDS011;27405;53.316;-6.294;2023-01-28T05:31:18;6.05;;;1.63;;
41719;SDS011;27405;53.316;-6.294;2023-01-28T05:33:43;4.53;;;1.55;;
41719;SDS011;27405;53.316;-6.294;2023-01-28T05:36:09;4.90;;;1.60;;
41719;SDS011;27405;53.316;-6.294;2023-01-28T05:38:35;5.10;;;1.90;;
41719;SDS011;27405;53.316;-6.294;2023-01-28T05:41:01;5.35;;;2.13;;
41719;SDS011;27405;53.316;-6.294;2023-01-28T05:43:26;6.32;;;1.88;;
41719;SDS011;27405;53.316;-6.294;2023-01-28T05:45:52;3.90;;;1.55;;
41719;SDS011;27405;53.316;-6.294;2023-01-28T05:48:18;5.20;;;1.60;;
41719;SDS011;27405;53.316;-6.294;2023-01-28T05:50:46;3.45;;;1.60;;
41719;SDS011;27405;53.316;-6.294;2023-01-28T05:53:12;5.63;;;1.70;;
41719;SDS011;27405;53.316;-6.294;2023-01-28T05:55:38;3.63;;;1.50;;
41719;SDS011;27405;53.316;-6.294;2023-01-28T05:58:03;2.40;;;1.50;;
41719;SDS011;27405;53.316;-6.294;2023-01-28T06:00:29;5.53;;;2.13;;
41719;SDS011;27405;53.316;-6.294;2023-01-28T06:02:55;4.45;;;1.80;;
41719;SDS011;27405;53.316;-6.294;2023-01-28T06:05:21;3.50;;;1.90;;
41719;SDS011;27405;53.316;-6.294;2023-01-28T06:07:47;3.88;;;1.80;;
41719;SDS011;27405;53.316;-6.294;2023-01-28T06:10:13;7.05;;;1.80;;
41719;SDS011;27405;53.316;-6.294;2023-01-28T06:12:41;4.00;;;1.58;;
41719;SDS011;27405;53.316;-6.294;2023-01-28T06:15:08;4.13;;;1.80;;
41719;SDS011;27405;53.316;-6.294;2023-01-28T06:17:34;3.35;;;1.50;;
41719;SDS011;27405;53.316;-6.294;2023-01-28T06:20:00;5.15;;;1.73;;
41719;SDS011;27405;53.316;-6.294;2023-01-28T06:22:26;6.47;;;2.38;;
41719;SDS011;27405;53.316;-6.294;2023-01-28T06:24:51;3.58;;;1.55;;
41719;SDS011;27405;53.316;-6.294;2023-01-28T06:27:17;3.55;;;1.50;;
41719;SDS011;27405;53.316;-6.294;2023-01-28T06:29:43;5.03;;;1.63;;
41719;SDS011;27405;53.316;-6.294;2023-01-28T06:32:09;3.40;;;1.52;;
41719;SDS011;27405;53.316;-6.294;2023-01-28T06:34:34;4.07;;;1.70;;
41719;SDS011;27405;53.316;-6.294;2023-01-28T06:37:00;3.20;;;1.50;;
41719;SDS011;27405;53.316;-6.294;2023-01-28T06:39:28;2.05;;;1.23;;
41719;SDS011;27405;53.316;-6.294;2023-01-28T06:41:56;3.08;;;1.70;;
41719;SDS011;27405;53.316;-6.294;2023-01-28T06:44:22;2.95;;;1.30;;
41719;SDS011;27405;53.316;-6.294;2023-01-28T06:46:48;4.18;;;1.25;;
41719;SDS011;27405;53.316;-6.294;2023-01-28T06:49:14;1.95;;;1.10;;
41719;SDS011;27405;53.316;-6.294;2023-01-28T06:51:40;3.53;;;1.60;;
41719;SDS011;27405;53.316;-6.294;2023-01-28T06:54:06;2.13;;;1.20;;
41719;SDS011;27405;53.316;-6.294;2023-01-28T06:56:32;1.27;;;1.13;;
41719;SDS011;27405;53.316;-6.294;2023-01-28T06:58:57;2.22;;;1.30;;
41719;SDS011;27405;53.316;-6.294;2023-01-28T07:01:23;2.47;;;1.40;;
41719;SDS011;27405;53.316;-6.294;2023-01-28T07:03:49;2.45;;;1.67;;
41719;SDS011;27405;53.316;-6.294;2023-01-28T07:06:15;2.80;;;1.73;;
41719;SDS011;27405;53.316;-6.294;2023-01-28T07:08:41;3.13;;;1.95;;
41719;SDS011;27405;53.316;-6.294;2023-01-28T07:11:07;4.28;;;1.90;;
41719;SDS011;27405;53.316;-6.294;2023-01-28T07:13:33;3.35;;;1.95;;
41719;SDS011;27405;53.316;-6.294;2023-01-28T07:15:59;4.45;;;1.80;;
41719;SDS011;27405;53.316;-6.294;2023-01-28T07:18:24;2.90;;;1.75;;
41719;SDS011;27405;53.316;-6.294;2023-01-28T07:20:51;2.13;;;1.52;;
41719;SDS011;27405;53.316;-6.294;2023-01-28T07:23:17;2.35;;;1.52;;
41719;SDS011;27405;53.316;-6.294;2023-01-28T07:25:42;2.85;;;1.77;;
41719;SDS011;27405;53.316;-6.294;2023-01-28T07:28:08;3.55;;;1.70;;
41719;SDS011;27405;53.316;-6.294;2023-01-28T07:30:36;4.55;;;1.90;;
41719;SDS011;27405;53.316;-6.294;2023-01-28T07:33:01;6.30;;;2.08;;
41719;SDS011;27405;53.316;-6.294;2023-01-28T07:35:27;7.15;;;3.38;;
41719;SDS011;27405;53.316;-6.294;2023-01-28T07:37:57;12.70;;;8.60;;
41719;SDS011;27405;53.316;-6.294;2023-01-28T07:40:25;15.95;;;9.48;;
41719;SDS011;27405;53.316;-6.294;2023-01-28T07:42:52;15.25;;;7.72;;
41719;SDS011;27405;53.316;-6.294;2023-01-28T07:47:54;4.50;;;2.50;;
41719;SDS011;27405;53.316;-6.294;2023-01-28T07:50:24;7.85;;;3.13;;
41719;SDS011;27405;53.316;-6.294;2023-01-28T07:52:50;8.00;;;4.15;;
41719;SDS011;27405;53.316;-6.294;2023-01-28T07:55:16;6.60;;;4.60;;
41719;SDS011;27405;53.316;-6.294;2023-01-28T07:57:49;6.82;;;4.50;;
41719;SDS011;27405;53.316;-6.294;2023-01-28T08:00:17;7.20;;;3.70;;
41719;SDS011;27405;53.316;-6.294;2023-01-28T08:02:44;4.15;;;2.78;;
41719;SDS011;27405;53.316;-6.294;2023-01-28T08:05:13;4.13;;;2.70;;
41719;SDS011;27405;53.316;-6.294;2023-01-28T08:07:40;3.50;;;2.45;;
41719;SDS011;27405;53.316;-6.294;2023-01-28T08:10:06;5.80;;;2.47;;
41719;SDS011;27405;53.316;-6.294;2023-01-28T08:12:33;2.72;;;2.10;;
41719;SDS011;27405;53.316;-6.294;2023-01-28T08:14:58;3.38;;;2.10;;
41719;SDS011;27405;53.316;-6.294;2023-01-28T08:17:24;3.38;;;2.25;;
41719;SDS011;27405;53.316;-6.294;2023-01-28T08:19:51;1.77;;;1.40;;
41719;SDS011;27405;53.316;-6.294;2023-01-28T08:22:17;1.98;;;1.20;;
41719;SDS011;27405;53.316;-6.294;2023-01-28T08:24:43;3.20;;;1.30;;
41719;SDS011;27405;53.316;-6.294;2023-01-28T08:27:09;3.78;;;1.40;;
41719;SDS011;27405;53.316;-6.294;2023-01-28T08:29:34;2.88;;;1.55;;
41719;SDS011;27405;53.316;-6.294;2023-01-28T08:32:00;4.03;;;1.73;;
41719;SDS011;27405;53.316;-6.294;2023-01-28T08:34:28;4.22;;;1.80;;
41719;SDS011;27405;53.316;-6.294;2023-01-28T08:36:54;5.43;;;1.88;;
41719;SDS011;27405;53.316;-6.294;2023-01-28T08:39:20;3.45;;;1.63;;
41719;SDS011;27405;53.316;-6.294;2023-01-28T08:41:46;3.58;;;1.27;;
41719;SDS011;27405;53.316;-6.294;2023-01-28T08:44:11;5.75;;;0.95;;
41719;SDS011;27405;53.316;-6.294;2023-01-28T08:46:37;2.40;;;0.93;;
41719;SDS011;27405;53.316;-6.294;2023-01-28T08:49:03;1.25;;;0.90;;
41719;SDS011;27405;53.316;-6.294;2023-01-28T08:51:29;2.55;;;1.27;;
41719;SDS011;27405;53.316;-6.294;2023-01-28T08:53:54;1.83;;;1.00;;
41719;SDS011;27405;53.316;-6.294;2023-01-28T08:56:20;3.33;;;1.00;;
41719;SDS011;27405;53.316;-6.294;2023-01-28T08:58:46;1.30;;;0.80;;
41719;SDS011;27405;53.316;-6.294;2023-01-28T09:01:12;1.75;;;0.80;;
41719;SDS011;27405;53.316;-6.294;2023-01-28T09:03:40;1.58;;;1.00;;
41719;SDS011;27405;53.316;-6.294;2023-01-28T09:06:06;3.20;;;1.30;;
41719;SDS011;27405;53.316;-6.294;2023-01-28T09:08:32;2.25;;;1.25;;
41719;SDS011;27405;53.316;-6.294;2023-01-28T09:10:58;1.48;;;1.05;;
41719;SDS011;27405;53.316;-6.294;2023-01-28T09:13:24;1.92;;;1.10;;
41719;SDS011;27405;53.316;-6.294;2023-01-28T09:15:51;1.80;;;1.30;;
41719;SDS011;27405;53.316;-6.294;2023-01-28T09:18:17;2.47;;;1.45;;
41719;SDS011;27405;53.316;-6.294;2023-01-28T09:20:43;2.53;;;1.38;;
41719;SDS011;27405;53.316;-6.294;2023-01-28T09:23:09;4.20;;;2.30;;
41719;SDS011;27405;53.316;-6.294;2023-01-28T09:25:35;4.78;;;2.38;;
41719;SDS011;27405;53.316;-6.294;2023-01-28T09:28:02;3.20;;;1.63;;
41719;SDS011;27405;53.316;-6.294;2023-01-28T09:30:30;2.85;;;1.30;;
41719;SDS011;27405;53.316;-6.294;2023-01-28T09:32:57;1.50;;;0.88;;
41719;SDS011;27405;53.316;-6.294;2023-01-28T09:37:55;0.60;;;0.60;;
41719;SDS011;27405;53.316;-6.294;2023-01-28T09:40:36;0.82;;;0.68;;
41719;SDS011;27405;53.316;-6.294;2023-01-28T09:45:43;1.63;;;0.40;;
41719;SDS011;27405;53.316;-6.294;2023-01-28T09:48:13;0.82;;;0.60;;
41719;SDS011;27405;53.316;-6.294;2023-01-28T09:50:48;1.08;;;0.77;;
41719;SDS011;27405;53.316;-6.294;2023-01-28T09:55:48;3.63;;;1.60;;
41719;SDS011;27405;53.316;-6.294;2023-01-28T09:58:18;2.42;;;1.55;;
41719;SDS011;27405;53.316;-6.294;2023-01-28T10:17:46;8.75;;;4.90;;
41719;SDS011;27405;53.316;-6.294;2023-01-28T10:25:30;15.50;;;6.60;;
41719;SDS011;27405;53.316;-6.294;2023-01-28T10:27:57;10.25;;;5.55;;
41719;SDS011;27405;53.316;-6.294;2023-01-28T10:30:26;12.70;;;6.50;;
41719;SDS011;27405;53.316;-6.294;2023-01-28T10:33:02;10.45;;;5.60;;
41719;SDS011;27405;53.316;-6.294;2023-01-28T10:35:38;10.52;;;4.57;;
41719;SDS011;27405;53.316;-6.294;2023-01-28T10:38:13;8.02;;;4.88;;
41719;SDS011;27405;53.316;-6.294;2023-01-28T10:43:12;7.45;;;4.45;;
41719;SDS011;27405;53.316;-6.294;2023-01-28T10:45:55;8.32;;;4.95;;
41719;SDS011;27405;53.316;-6.294;2023-01-28T10:51:01;9.05;;;4.50;;
41719;SDS011;27405;53.316;-6.294;2023-01-28T10:53:37;6.85;;;3.78;;
41719;SDS011;27405;53.316;-6.294;2023-01-28T10:56:16;7.55;;;3.42;;
41719;SDS011;27405;53.316;-6.294;2023-01-28T11:04:31;7.43;;;2.70;;
41719;SDS011;27405;53.316;-6.294;2023-01-28T11:07:03;6.35;;;2.75;;
41719;SDS011;27405;53.316;-6.294;2023-01-28T11:09:46;6.25;;;3.15;;
41719;SDS011;27405;53.316;-6.294;2023-01-28T11:12:21;11.38;;;6.80;;
41719;SDS011;27405;53.316;-6.294;2023-01-28T11:14:55;11.43;;;6.57;;
41719;SDS011;27405;53.316;-6.294;2023-01-28T11:17:23;12.27;;;6.93;;
41719;SDS011;27405;53.316;-6.294;2023-01-28T11:19:55;10.40;;;6.20;;
41719;SDS011;27405;53.316;-6.294;2023-01-28T11:22:35;13.05;;;6.82;;
41719;SDS011;27405;53.316;-6.294;2023-01-28T11:25:05;9.63;;;6.38;;
41719;SDS011;27405;53.316;-6.294;2023-01-28T11:27:51;8.88;;;6.03;;
41719;SDS011;27405;53.316;-6.294;2023-01-28T11:30:22;8.88;;;6.00;;
41719;SDS011;27405;53.316;-6.294;2023-01-28T11:32:55;7.70;;;5.80;;
41719;SDS011;27405;53.316;-6.294;2023-01-28T11:35:36;10.82;;;5.85;;
41719;SDS011;27405;53.316;-6.294;2023-01-28T11:38:02;11.95;;;6.32;;
41719;SDS011;27405;53.316;-6.294;2023-01-28T11:40:48;12.13;;;6.35;;
41719;SDS011;27405;53.316;-6.294;2023-01-28T11:43:18;8.23;;;5.40;;
41719;SDS011;27405;53.316;-6.294;2023-01-28T11:45:56;8.55;;;5.30;;
41719;SDS011;27405;53.316;-6.294;2023-01-28T12:24:26;3.08;;;1.60;;
41719;SDS011;27405;53.316;-6.294;2023-01-28T12:27:02;4.43;;;2.05;;
41719;SDS011;27405;53.316;-6.294;2023-01-28T12:29:57;2.72;;;2.05;;
41719;SDS011;27405;53.316;-6.294;2023-01-28T12:35:52;4.22;;;2.75;;
41719;SDS011;27405;53.316;-6.294;2023-01-28T12:38:50;3.55;;;2.58;;
41719;SDS011;27405;53.316;-6.294;2023-01-28T12:41:41;8.50;;;3.33;;
41719;SDS011;27405;53.316;-6.294;2023-01-28T12:44:31;5.75;;;2.75;;
41719;SDS011;27405;53.316;-6.294;2023-01-28T12:47:06;5.53;;;3.15;;
41719;SDS011;27405;53.316;-6.294;2023-01-28T12:49:42;7.97;;;3.55;;
41719;SDS011;27405;53.316;-6.294;2023-01-28T12:52:35;4.53;;;2.63;;
41719;SDS011;27405;53.316;-6.294;2023-01-28T12:55:14;2.83;;;2.05;;
41719;SDS011;27405;53.316;-6.294;2023-01-28T12:57:40;3.80;;;2.38;;
41719;SDS011;27405;53.316;-6.294;2023-01-28T13:06:00;2.83;;;1.70;;
41719;SDS011;27405;53.316;-6.294;2023-01-28T13:08:30;3.60;;;1.30;;
41719;SDS011;27405;53.316;-6.294;2023-01-28T13:10:58;2.20;;;1.50;;
41719;SDS011;27405;53.316;-6.294;2023-01-28T13:13:35;1.30;;;1.20;;
41719;SDS011;27405;53.316;-6.294;2023-01-28T13:16:08;2.85;;;1.50;;
41719;SDS011;27405;53.316;-6.294;2023-01-28T13:21:05;2.97;;;1.30;;
41719;SDS011;27405;53.316;-6.294;2023-01-28T13:28:44;1.60;;;1.50;;
41719;SDS011;27405;53.316;-6.294;2023-01-28T13:31:12;2.33;;;1.80;;
41719;SDS011;27405;53.316;-6.294;2023-01-28T13:33:45;2.38;;;1.67;;
41719;SDS011;27405;53.316;-6.294;2023-01-28T13:38:42;3.00;;;1.90;;
41719;SDS011;27405;53.316;-6.294;2023-01-28T13:41:09;2.55;;;2.00;;
41719;SDS011;27405;53.316;-6.294;2023-01-28T13:43:37;3.80;;;1.85;;
41719;SDS011;27405;53.316;-6.294;2023-01-28T13:46:24;2.58;;;2.05;;
41719;SDS011;27405;53.316;-6.294;2023-01-28T13:48:55;3.13;;;2.22;;
41719;SDS011;27405;53.316;-6.294;2023-01-28T13:51:26;7.78;;;4.28;;
41719;SDS011;27405;53.316;-6.294;2023-01-28T13:53:57;5.90;;;3.75;;
41719;SDS011;27405;53.316;-6.294;2023-01-28T13:56:31;6.03;;;3.35;;
41719;SDS011;27405;53.316;-6.294;2023-01-28T14:05:04;10.10;;;6.28;;
41719;SDS011;27405;53.316;-6.294;2023-01-28T14:16:29;12.13;;;7.60;;
41719;SDS011;27405;53.316;-6.294;2023-01-28T14:19:20;14.50;;;8.25;;
41719;SDS011;27405;53.316;-6.294;2023-01-28T14:21:56;19.20;;;10.90;;
41719;SDS011;27405;53.316;-6.294;2023-01-28T14:24:30;10.55;;;6.25;;
41719;SDS011;27405;53.316;-6.294;2023-01-28T14:30:02;8.70;;;5.20;;
41719;SDS011;27405;53.316;-6.294;2023-01-28T14:32:30;11.00;;;6.38;;
41719;SDS011;27405;53.316;-6.294;2023-01-28T14:34:58;8.43;;;5.40;;
41719;SDS011;27405;53.316;-6.294;2023-01-28T14:37:31;11.43;;;6.63;;
41719;SDS011;27405;53.316;-6.294;2023-01-28T14:42:41;8.77;;;6.13;;
41719;SDS011;27405;53.316;-6.294;2023-01-28T14:45:20;10.88;;;6.93;;
41719;SDS011;27405;53.316;-6.294;2023-01-28T14:53:31;11.07;;;6.53;;
41719;SDS011;27405;53.316;-6.294;2023-01-28T14:56:21;11.98;;;6.57;;
41719;SDS011;27405;53.316;-6.294;2023-01-28T15:01:45;9.38;;;4.72;;
41719;SDS011;27405;53.316;-6.294;2023-01-28T15:04:22;5.07;;;3.53;;
41719;SDS011;27405;53.316;-6.294;2023-01-28T15:07:00;5.43;;;3.78;;
41719;SDS011;27405;53.316;-6.294;2023-01-28T15:09:39;5.40;;;3.05;;
41719;SDS011;27405;53.316;-6.294;2023-01-28T15:12:08;5.00;;;2.92;;
41719;SDS011;27405;53.316;-6.294;2023-01-28T15:14:34;5.80;;;3.47;;
41719;SDS011;27405;53.316;-6.294;2023-01-28T15:17:00;6.30;;;3.55;;
41719;SDS011;27405;53.316;-6.294;2023-01-28T15:19:34;4.53;;;3.05;;
41719;SDS011;27405;53.316;-6.294;2023-01-28T15:22:05;4.97;;;3.47;;
41719;SDS011;27405;53.316;-6.294;2023-01-28T15:24:36;6.40;;;3.63;;
41719;SDS011;27405;53.316;-6.294;2023-01-28T15:27:18;6.13;;;4.03;;
41719;SDS011;27405;53.316;-6.294;2023-01-28T15:29:51;8.95;;;5.22;;
41719;SDS011;27405;53.316;-6.294;2023-01-28T15:32:29;8.02;;;5.28;;
41719;SDS011;27405;53.316;-6.294;2023-01-28T15:34:57;9.98;;;6.63;;
41719;SDS011;27405;53.316;-6.294;2023-01-28T15:37:26;10.98;;;6.75;;
41719;SDS011;27405;53.316;-6.294;2023-01-28T15:39:59;11.90;;;7.43;;
41719;SDS011;27405;53.316;-6.294;2023-01-28T15:42:32;12.80;;;6.93;;
41719;SDS011;27405;53.316;-6.294;2023-01-28T15:44:58;13.35;;;7.55;;
41719;SDS011;27405;53.316;-6.294;2023-01-28T15:47:29;14.35;;;8.55;;
41719;SDS011;27405;53.316;-6.294;2023-01-28T15:50:00;12.80;;;7.47;;
41719;SDS011;27405;53.316;-6.294;2023-01-28T15:52:33;16.35;;;9.30;;
41719;SDS011;27405;53.316;-6.294;2023-01-28T15:55:03;21.17;;;12.75;;
41719;SDS011;27405;53.316;-6.294;2023-01-28T15:57:31;20.65;;;11.63;;
41719;SDS011;27405;53.316;-6.294;2023-01-28T16:00:13;21.92;;;12.23;;
41719;SDS011;27405;53.316;-6.294;2023-01-28T16:02:44;17.52;;;10.63;;
41719;SDS011;27405;53.316;-6.294;2023-01-28T16:05:33;18.90;;;11.82;;
41719;SDS011;27405;53.316;-6.294;2023-01-28T16:08:09;19.60;;;11.73;;
41719;SDS011;27405;53.316;-6.294;2023-01-28T16:10:44;19.93;;;11.60;;
41719;SDS011;27405;53.316;-6.294;2023-01-28T16:13:20;22.58;;;13.70;;
41719;SDS011;27405;53.316;-6.294;2023-01-28T16:15:49;22.58;;;14.20;;
41719;SDS011;27405;53.316;-6.294;2023-01-28T16:21:02;24.73;;;16.48;;
41719;SDS011;27405;53.316;-6.294;2023-01-28T16:23:30;25.55;;;16.52;;
41719;SDS011;27405;53.316;-6.294;2023-01-28T16:26:00;24.45;;;16.20;;
41719;SDS011;27405;53.316;-6.294;2023-01-28T16:28:28;23.30;;;15.45;;
41719;SDS011;27405;53.316;-6.294;2023-01-28T16:30:55;21.65;;;14.43;;
41719;SDS011;27405;53.316;-6.294;2023-01-28T16:33:22;24.25;;;15.07;;
41719;SDS011;27405;53.316;-6.294;2023-01-28T16:35:48;21.65;;;14.15;;
41719;SDS011;27405;53.316;-6.294;2023-01-28T16:38:14;26.88;;;17.75;;
41719;SDS011;27405;53.316;-6.294;2023-01-28T16:40:43;24.10;;;15.65;;
41719;SDS011;27405;53.316;-6.294;2023-01-28T16:43:10;23.98;;;14.65;;
41719;SDS011;27405;53.316;-6.294;2023-01-28T16:45:40;26.98;;;17.00;;
41719;SDS011;27405;53.316;-6.294;2023-01-28T16:48:09;25.40;;;17.48;;
41719;SDS011;27405;53.316;-6.294;2023-01-28T16:50:49;25.88;;;15.18;;
41719;SDS011;27405;53.316;-6.294;2023-01-28T16:53:38;22.58;;;14.57;;
41719;SDS011;27405;53.316;-6.294;2023-01-28T16:56:06;21.48;;;13.85;;
41719;SDS011;27405;53.316;-6.294;2023-01-28T16:58:39;21.58;;;14.32;;
41719;SDS011;27405;53.316;-6.294;2023-01-28T17:01:05;27.63;;;17.20;;
41719;SDS011;27405;53.316;-6.294;2023-01-28T17:03:31;23.95;;;15.80;;
41719;SDS011;27405;53.316;-6.294;2023-01-28T17:05:57;23.52;;;15.63;;
41719;SDS011;27405;53.316;-6.294;2023-01-28T17:08:25;23.33;;;14.83;;
41719;SDS011;27405;53.316;-6.294;2023-01-28T17:10:53;25.73;;;17.35;;
41719;SDS011;27405;53.316;-6.294;2023-01-28T17:13:20;25.73;;;17.95;;
41719;SDS011;27405;53.316;-6.294;2023-01-28T17:15:48;27.38;;;19.52;;
41719;SDS011;27405;53.316;-6.294;2023-01-28T17:18:14;32.00;;;22.15;;